createdAt,value
2023-03-30T00:02:03.154Z,36.90
2023-03-30T00:04:34.153Z,36.98
2023-03-30T00:07:04.727Z,36.93
2023-03-30T00:09:33.084Z,37.12
2023-03-30T00:12:03.015Z,36.99
2023-03-30T00:14:31.907Z,37.23
2023-03-30T00:17:02.259Z,37.37
2023-03-30T00:19:31.922Z,37.09
2023-03-30T00:22:00.388Z,37.07
2023-03-30T00:24:28.723Z,36.84
2023-03-30T00:26:56.811Z,37.00
2023-03-30T00:29:25.478Z,36.66
2023-03-30T00:31:54.201Z,37.38
2023-03-30T00:34:22.489Z,37.33
2023-03-30T00:36:52.944Z,36.94
2023-03-30T00:39:26.051Z,38.18
2023-03-30T00:41:54.406Z,38.28
2023-03-30T01:01:29.810Z,39.21
2023-03-30T01:04:01.586Z,39.29
2023-03-30T01:06:34.476Z,39.19
2023-03-30T01:09:03.401Z,38.69
2023-03-30T01:11:31.608Z,38.55
2023-03-30T01:14:02.039Z,39.23
2023-03-30T01:16:35.724Z,39.97
2023-03-30T01:19:16.033Z,39.86
2023-03-30T01:22:04.095Z,39.35
2023-03-30T01:25:02.467Z,39.44
2023-03-30T01:27:45.473Z,39.75
2023-03-30T01:30:27.290Z,40.00
2023-03-30T01:33:04.837Z,39.71
2023-03-30T01:35:47.430Z,40.07
2023-03-30T01:38:30.062Z,39.71
2023-03-30T01:41:03.818Z,39.93
2023-03-30T01:43:36.316Z,40.02
2023-03-30T01:46:08.820Z,39.74
2023-03-30T01:48:44.756Z,39.97
2023-03-30T01:51:17.605Z,40.33
2023-03-30T01:53:48.762Z,40.34
2023-03-30T01:56:21.802Z,40.41
2023-03-30T01:58:52.766Z,40.27
2023-03-30T02:01:23.331Z,40.09
2023-03-30T02:03:56.599Z,40.67
2023-03-30T02:06:27.705Z,40.67
2023-03-30T02:08:58.773Z,40.60
2023-03-30T02:11:29.272Z,40.38
2023-03-30T02:13:59.016Z,39.86
2023-03-30T02:16:30.969Z,39.66
2023-03-30T02:19:00.448Z,39.51
2023-03-30T02:21:29.414Z,39.31
2023-03-30T02:23:59.108Z,39.11
2023-03-30T02:26:28.798Z,39.03
2023-03-30T02:28:57.060Z,39.03
2023-03-30T02:31:25.500Z,38.94
2023-03-30T02:34:08.166Z,38.78
2023-03-30T02:36:51.847Z,38.60
2023-03-30T02:39:30.749Z,38.63
2023-03-30T02:42:13.378Z,38.53
2023-03-30T02:44:45.248Z,38.52
2023-03-30T02:47:17.965Z,38.23
2023-03-30T02:49:53.492Z,38.50
2023-03-30T02:52:36.542Z,38.27
2023-03-30T02:55:11.538Z,38.00
2023-03-30T02:57:45.837Z,38.19
2023-03-30T03:00:18.165Z,38.30
2023-03-30T03:02:49.596Z,37.86
2023-03-30T03:05:21.162Z,37.75
2023-03-30T03:07:49.516Z,37.68
2023-03-30T03:10:18.948Z,37.72
2023-03-30T03:12:47.406Z,37.80
2023-03-30T03:15:16.483Z,37.80
2023-03-30T03:17:44.719Z,37.45
2023-03-30T03:20:13.297Z,37.38
2023-03-30T03:22:41.793Z,37.28
2023-03-30T03:25:11.344Z,37.25
2023-03-30T03:27:40.071Z,37.29
2023-03-30T03:30:09.565Z,37.33
2023-03-30T03:32:38.653Z,37.32
2023-03-30T03:35:07.621Z,37.24
2023-03-30T03:37:36.046Z,37.23
2023-03-30T03:40:05.781Z,37.18
2023-03-30T03:42:34.866Z,37.42
2023-03-30T03:45:03.418Z,37.62
2023-03-30T03:47:32.858Z,37.74
2023-03-30T03:50:03.613Z,37.71
2023-03-30T03:52:31.925Z,37.80
2023-03-30T03:55:00.602Z,37.75
2023-03-30T03:57:30.771Z,37.73
2023-03-30T03:59:59.544Z,37.69
2023-03-30T04:02:28.057Z,37.74
2023-03-30T04:04:57.746Z,37.72
2023-03-30T04:07:26.105Z,37.60
2023-03-30T04:09:54.641Z,37.53
2023-03-30T04:12:24.631Z,37.61
2023-03-30T04:14:53.734Z,37.70
2023-03-30T04:17:23.732Z,37.97
2023-03-30T04:19:54.133Z,38.53
2023-03-30T04:22:25.016Z,38.43
2023-03-30T04:24:54.863Z,38.70
2023-03-30T04:27:25.420Z,38.84
2023-03-30T04:29:57.095Z,39.42
2023-03-30T04:32:26.258Z,40.20
2023-03-30T04:34:55.257Z,40.31
2023-03-30T04:37:29.620Z,40.02
2023-03-30T04:40:23.498Z,39.47
2023-03-30T04:42:53.505Z,39.11
2023-03-30T04:45:22.828Z,38.83
2023-03-30T04:47:51.217Z,38.75
2023-03-30T04:50:20.491Z,38.79
2023-03-30T04:52:48.925Z,38.96
2023-03-30T04:55:17.650Z,39.04
2023-03-30T04:57:46.564Z,38.99
2023-03-30T05:00:17.006Z,38.98
2023-03-30T05:02:45.711Z,38.96
2023-03-30T05:05:14.703Z,38.93
2023-03-30T05:07:43.022Z,38.98
2023-03-30T05:10:11.392Z,38.97
2023-03-30T05:12:39.985Z,38.88
2023-03-30T05:15:12.224Z,38.52
2023-03-30T05:17:41.456Z,38.55
2023-03-30T05:20:11.538Z,38.44
2023-03-30T05:22:39.765Z,38.51
2023-03-30T05:25:09.698Z,38.43
2023-03-30T05:27:38.118Z,38.42
2023-03-30T05:30:08.214Z,38.36
2023-03-30T05:32:37.282Z,38.11
2023-03-30T05:35:06.290Z,38.08
2023-03-30T05:37:34.506Z,37.94
2023-03-30T05:40:07.761Z,37.84
2023-03-30T05:42:37.576Z,37.42
2023-03-30T05:45:07.714Z,37.17
2023-03-30T05:47:36.276Z,36.94
2023-03-30T05:50:06.001Z,37.27
2023-03-30T05:52:34.430Z,37.26
2023-03-30T05:55:03.653Z,36.99
2023-03-30T05:57:33.029Z,35.92
2023-03-30T06:00:01.581Z,36.33
2023-03-30T06:02:38.002Z,36.79
2023-03-30T06:05:07.951Z,36.85
2023-03-30T06:07:37.427Z,36.49
2023-03-30T06:10:07.214Z,36.74
2023-03-30T06:12:36.123Z,36.30
2023-03-30T06:15:04.831Z,36.58
2023-03-30T06:17:36.122Z,36.71
2023-03-30T06:20:10.560Z,36.94
2023-03-30T06:22:39.246Z,36.83
2023-03-30T06:25:10.888Z,37.12
2023-03-30T06:27:44.148Z,37.35
2023-03-30T06:30:14.877Z,38.03
2023-03-30T06:32:43.382Z,37.36
2023-03-30T06:35:13.052Z,36.81
2023-03-30T06:37:41.459Z,35.77
2023-03-30T06:40:12.947Z,35.06
2023-03-30T06:42:43.491Z,36.83
2023-03-30T06:45:12.102Z,36.60
2023-03-30T06:47:41.224Z,35.36
2023-03-30T06:50:11.300Z,35.44
2023-03-30T06:52:39.694Z,34.82
2023-03-30T06:55:08.866Z,35.00
2023-03-30T06:57:38.054Z,34.76
2023-03-30T07:00:12.994Z,34.38
2023-03-30T07:02:42.593Z,33.77
2023-03-30T07:05:12.696Z,33.45
2023-03-30T07:07:41.005Z,34.13
2023-03-30T07:10:10.642Z,33.80
2023-03-30T07:12:40.500Z,33.51
2023-03-30T07:15:09.482Z,33.07
2023-03-30T07:17:39.882Z,32.30
2023-03-30T07:20:10.373Z,33.12
2023-03-30T07:22:38.668Z,33.47
2023-03-30T07:25:08.452Z,32.52
2023-03-30T07:27:37.409Z,32.27
2023-03-30T07:30:18.086Z,32.06
2023-03-30T07:32:51.206Z,32.80
2023-03-30T07:35:19.519Z,32.36
2023-03-30T07:37:50.892Z,33.10
2023-03-30T07:40:20.789Z,32.81
2023-03-30T07:42:50.073Z,32.60
2023-03-30T07:45:18.408Z,32.61
2023-03-30T07:47:47.010Z,29.91
2023-03-30T07:50:15.492Z,30.26
2023-03-30T07:52:43.868Z,30.26
2023-03-30T07:55:13.960Z,29.34
2023-03-30T07:57:42.217Z,29.72
2023-03-30T08:00:13.802Z,29.64
2023-03-30T08:02:42.662Z,30.34
2023-03-30T08:05:12.125Z,30.28
2023-03-30T08:07:40.960Z,30.03
2023-03-30T08:10:09.945Z,30.03
2023-03-30T08:12:38.146Z,30.97
2023-03-30T08:15:07.546Z,29.71
2023-03-30T08:17:36.779Z,30.71
2023-03-30T08:20:10.372Z,29.65
2023-03-30T08:22:39.259Z,29.67
2023-03-30T08:25:08.798Z,30.43
2023-03-30T08:27:37.326Z,30.31
2023-03-30T08:30:08.667Z,30.02
2023-03-30T08:32:37.006Z,30.21
2023-03-30T08:35:06.505Z,30.23
2023-03-30T08:37:35.957Z,29.29
2023-03-30T08:40:07.792Z,28.28
2023-03-30T08:43:05.692Z,28.99
2023-03-30T08:45:36.658Z,29.95
2023-03-30T08:48:08.090Z,29.82
2023-03-30T08:50:36.716Z,29.80
2023-03-30T08:53:07.174Z,29.61
2023-03-30T08:55:39.962Z,29.43
2023-03-30T08:58:12.565Z,28.83
2023-03-30T09:00:44.508Z,27.40
2023-03-30T09:03:17.896Z,28.20
2023-03-30T09:05:49.941Z,29.31
2023-03-30T09:08:20.608Z,28.80
2023-03-30T09:10:52.864Z,28.33
2023-03-30T09:13:23.537Z,26.01
2023-03-30T09:15:54.656Z,25.93
2023-03-30T09:18:26.520Z,27.37
2023-03-30T09:20:57.124Z,27.36
2023-03-30T09:23:29.207Z,26.61
2023-03-30T09:26:02.703Z,26.49
2023-03-30T09:28:33.568Z,27.00
2023-03-30T09:31:03.467Z,26.60
2023-03-30T09:33:37.429Z,26.48
2023-03-30T09:36:10.892Z,26.39
2023-03-30T09:38:41.745Z,27.25
2023-03-30T09:41:23.728Z,27.50
2023-03-30T09:43:53.023Z,26.57
2023-03-30T09:46:21.334Z,25.63
2023-03-30T09:48:50.978Z,25.60
2023-03-30T09:51:21.649Z,26.02
2023-03-30T09:53:51.456Z,26.58
2023-03-30T09:56:26.829Z,26.30
2023-03-30T09:58:55.752Z,26.05
2023-03-30T10:01:35.483Z,25.69
2023-03-30T10:04:10.011Z,25.48
2023-03-30T10:06:46.154Z,25.18
2023-03-30T10:09:15.401Z,24.33
2023-03-30T10:11:45.183Z,24.32
2023-03-30T10:14:28.774Z,23.88
2023-03-30T10:16:58.367Z,24.26
2023-03-30T10:19:27.475Z,24.22
2023-03-30T10:21:57.587Z,24.12
2023-03-30T10:24:27.561Z,24.76
2023-03-30T10:26:56.990Z,23.93
2023-03-30T10:29:27.146Z,24.11
2023-03-30T10:31:59.492Z,23.49
2023-03-30T10:34:33.334Z,24.57
2023-03-30T10:37:04.330Z,24.29
2023-03-30T10:39:33.521Z,24.18
2023-03-30T10:42:03.817Z,23.65
2023-03-30T10:44:33.127Z,22.93
2023-03-30T10:47:11.070Z,23.43
2023-03-30T10:49:43.553Z,23.89
2023-03-30T10:52:15.475Z,23.32
2023-03-30T10:54:48.320Z,23.39
2023-03-30T10:57:17.901Z,23.55
2023-03-30T10:59:59.300Z,23.84
2023-03-30T11:02:40.469Z,24.26
2023-03-30T11:05:13.493Z,24.58
2023-03-30T11:07:46.217Z,24.58
2023-03-30T11:10:18.185Z,22.95
2023-03-30T11:12:49.521Z,23.62
2023-03-30T11:15:22.826Z,23.13
2023-03-30T11:17:55.811Z,23.48
2023-03-30T11:20:27.344Z,23.55
2023-03-30T11:22:58.746Z,23.64
2023-03-30T11:25:30.361Z,23.08
2023-03-30T11:28:01.895Z,23.02
2023-03-30T11:30:31.574Z,23.53
2023-03-30T11:33:06.353Z,22.81
2023-03-30T11:35:39.199Z,22.25
2023-03-30T11:38:14.076Z,22.09
2023-03-30T11:40:46.485Z,22.02
2023-03-30T11:43:15.791Z,22.00
2023-03-30T11:45:51.385Z,22.33
2023-03-30T11:48:26.543Z,22.56
2023-03-30T11:51:03.842Z,21.97
2023-03-30T11:53:37.024Z,21.22
2023-03-30T11:56:10.767Z,21.83
2023-03-30T11:58:43.296Z,22.07
2023-03-30T12:01:26.357Z,21.53
2023-03-30T12:03:59.597Z,21.68
2023-03-30T12:06:30.502Z,22.15
2023-03-30T12:09:04.885Z,22.16
2023-03-30T12:11:38.042Z,22.05
2023-03-30T12:14:14.679Z,21.94
2023-03-30T12:16:46.131Z,21.77
2023-03-30T12:19:19.436Z,21.55
2023-03-30T12:21:52.885Z,20.98
2023-03-30T12:24:23.769Z,20.48
2023-03-30T12:27:04.372Z,20.55
2023-03-30T12:30:02.351Z,21.04
2023-03-30T12:32:34.905Z,20.97
2023-03-30T12:35:23.804Z,20.20
2023-03-30T12:37:52.328Z,20.37
2023-03-30T12:40:21.777Z,21.22
2023-03-30T12:42:53.763Z,21.34
2023-03-30T12:45:32.242Z,20.61
2023-03-30T12:48:08.814Z,20.34
2023-03-30T12:50:43.634Z,20.28
2023-03-30T12:53:30.856Z,19.84
2023-03-30T12:56:04.573Z,19.80
2023-03-30T12:58:56.716Z,20.63
2023-03-30T13:01:33.029Z,20.60
2023-03-30T13:04:02.185Z,20.20
2023-03-30T13:06:31.931Z,20.16
2023-03-30T13:09:05.005Z,18.90
2023-03-30T13:11:43.953Z,18.73
2023-03-30T13:14:17.548Z,19.42
2023-03-30T13:16:48.261Z,19.38
2023-03-30T13:19:22.199Z,18.63
2023-03-30T13:21:56.109Z,19.27
2023-03-30T13:24:32.542Z,18.60
2023-03-30T13:27:20.686Z,18.50
2023-03-30T13:29:55.718Z,17.81
2023-03-30T13:32:29.489Z,17.97
2023-03-30T13:35:07.768Z,17.16
2023-03-30T13:37:53.770Z,17.24
2023-03-30T13:40:41.541Z,17.34
2023-03-30T13:43:22.935Z,17.46
2023-03-30T13:46:09.242Z,17.95
2023-03-30T13:48:55.772Z,18.11
2023-03-30T13:51:27.486Z,17.21
2023-03-30T13:53:57.554Z,16.79
2023-03-30T13:56:26.979Z,16.98
2023-03-30T13:59:01.722Z,16.35
2023-03-30T14:01:30.553Z,16.76
2023-03-30T14:04:03.327Z,15.71
2023-03-30T14:06:33.768Z,16.70
2023-03-30T14:09:10.510Z,15.80
2023-03-30T14:11:41.221Z,16.18
2023-03-30T14:14:16.124Z,16.80
2023-03-30T14:16:47.333Z,16.13
2023-03-30T14:19:22.028Z,15.84
2023-03-30T14:21:53.858Z,15.07
2023-03-30T14:24:28.496Z,14.01
2023-03-30T14:27:02.123Z,14.50
2023-03-30T14:29:31.929Z,15.09
2023-03-30T14:32:08.240Z,14.81
2023-03-30T14:34:37.933Z,15.03
2023-03-30T14:37:08.336Z,15.90
2023-03-30T14:39:40.884Z,15.78
2023-03-30T14:42:14.602Z,14.23
2023-03-30T14:44:48.848Z,14.76
2023-03-30T14:47:22.062Z,14.11
2023-03-30T14:49:54.007Z,13.58
2023-03-30T14:52:26.875Z,13.39
2023-03-30T14:55:07.368Z,13.50
2023-03-30T14:57:41.267Z,13.38
2023-03-30T15:00:21.531Z,13.85
2023-03-30T15:02:52.734Z,14.37
2023-03-30T15:05:23.170Z,13.51
2023-03-30T15:07:52.620Z,13.40
2023-03-30T15:10:26.056Z,13.17
2023-03-30T15:12:56.538Z,13.46
2023-03-30T15:15:27.554Z,13.43
2023-03-30T15:17:57.569Z,13.78
2023-03-30T15:20:29.340Z,13.97
2023-03-30T15:22:58.227Z,14.15
2023-03-30T15:25:35.867Z,14.50
2023-03-30T15:28:07.736Z,14.55
2023-03-30T15:30:38.007Z,13.97
2023-03-30T15:33:08.340Z,14.07
2023-03-30T15:35:37.613Z,14.34
2023-03-30T15:38:13.706Z,14.25
2023-03-30T15:40:43.329Z,14.05
2023-03-30T15:43:12.469Z,13.97
2023-03-30T15:45:41.057Z,14.23
2023-03-30T15:48:11.575Z,14.52
2023-03-30T15:50:42.821Z,14.94
2023-03-30T15:53:13.711Z,14.64
2023-03-30T15:55:45.172Z,14.66
2023-03-30T15:58:13.800Z,14.50
2023-03-30T16:00:42.896Z,14.60
2023-03-30T16:03:12.896Z,15.13
2023-03-30T16:05:42.814Z,15.31
2023-03-30T16:08:11.197Z,15.21
2023-03-30T16:10:39.927Z,15.25
2023-03-30T16:13:12.568Z,15.51
2023-03-30T16:15:44.023Z,16.12
2023-03-30T16:18:13.529Z,16.77
2023-03-30T16:20:46.929Z,17.14
2023-03-30T16:23:19.938Z,17.58
2023-03-30T16:25:51.346Z,18.04
2023-03-30T16:28:19.849Z,18.47
2023-03-30T16:30:51.464Z,18.86
2023-03-30T16:33:19.774Z,18.84
2023-03-30T16:35:48.269Z,19.24
2023-03-30T16:38:17.436Z,19.49
2023-03-30T16:40:47.363Z,19.59
2023-03-30T16:43:16.083Z,19.99
2023-03-30T16:45:45.181Z,20.41
2023-03-30T16:48:14.942Z,20.64
2023-03-30T16:50:44.413Z,21.01
2023-03-30T16:53:13.012Z,21.19
2023-03-30T16:55:41.839Z,21.48
2023-03-30T16:58:13.276Z,21.68
2023-03-30T17:00:42.571Z,21.94
2023-03-30T17:03:11.298Z,21.76
2023-03-30T17:05:39.714Z,21.90
2023-03-30T17:08:13.951Z,22.02
2023-03-30T17:10:42.608Z,22.27
2023-03-30T17:13:10.966Z,22.11
2023-03-30T17:15:39.397Z,22.38
2023-03-30T17:18:12.202Z,22.34
2023-03-30T17:20:42.975Z,22.13
2023-03-30T17:23:11.594Z,22.06
2023-03-30T17:25:41.354Z,21.91
2023-03-30T17:28:16.273Z,21.83
2023-03-30T17:30:45.392Z,21.92
2023-03-30T17:33:14.505Z,22.46
2023-03-30T17:35:45.147Z,22.60
2023-03-30T17:38:14.201Z,22.62
2023-03-30T17:40:44.036Z,22.63
2023-03-30T17:43:12.701Z,22.48
2023-03-30T17:45:42.532Z,22.50
2023-03-30T17:48:13.148Z,22.21
2023-03-30T17:50:45.978Z,22.28
2023-03-30T17:53:16.450Z,22.22
2023-03-30T17:55:47.549Z,22.40
2023-03-30T17:58:18.182Z,22.53
2023-03-30T18:00:49.433Z,22.43
2023-03-30T18:03:20.414Z,22.65
2023-03-30T18:05:50.283Z,22.75
2023-03-30T18:08:23.713Z,22.83
2023-03-30T18:10:53.189Z,22.76
2023-03-30T18:13:23.095Z,22.89
2023-03-30T18:15:54.184Z,22.83
2023-03-30T18:18:24.426Z,23.09
2023-03-30T18:20:53.722Z,22.87
2023-03-30T18:23:22.586Z,23.10
2023-03-30T18:25:51.921Z,23.16
2023-03-30T18:28:20.991Z,23.16
2023-03-30T18:30:49.523Z,23.16
2023-03-30T18:33:23.555Z,22.94
2023-03-30T18:35:53.180Z,23.00
2023-03-30T18:38:23.052Z,22.99
2023-03-30T18:40:56.995Z,22.79
2023-03-30T18:43:26.084Z,22.80
2023-03-30T18:45:58.554Z,22.76
2023-03-30T18:48:36.191Z,22.68
2023-03-30T18:51:04.511Z,22.82
2023-03-30T18:53:33.799Z,22.88
2023-03-30T18:56:03.834Z,22.88
2023-03-30T18:58:33.381Z,22.81
2023-03-30T19:01:02.755Z,22.71
2023-03-30T19:03:32.743Z,22.81
2023-03-30T19:06:02.393Z,22.81
2023-03-30T19:08:32.385Z,22.72
2023-03-30T19:11:02.076Z,22.81
2023-03-30T19:13:31.034Z,22.83
2023-03-30T19:16:04.109Z,22.83
2023-03-30T19:18:33.590Z,22.89
2023-03-30T19:21:03.703Z,22.98
2023-03-30T19:23:33.195Z,23.04
2023-03-30T19:26:03.067Z,23.03
2023-03-30T19:28:51.763Z,23.96
2023-03-30T19:31:20.592Z,24.40
2023-03-30T19:33:49.437Z,23.80
2023-03-30T19:36:18.004Z,24.36
2023-03-30T19:38:46.759Z,24.89
2023-03-30T19:41:15.147Z,24.82
2023-03-30T19:43:45.044Z,24.23
2023-03-30T19:46:13.454Z,23.57
2023-03-30T19:48:42.582Z,23.48
2023-03-30T19:51:12.193Z,23.39
2023-03-30T19:53:41.583Z,23.45
2023-03-30T19:56:10.578Z,23.47
2023-03-30T19:58:39.198Z,23.40
2023-03-30T20:01:08.087Z,23.39
2023-03-30T20:03:36.655Z,23.36
2023-03-30T20:06:07.939Z,23.35
2023-03-30T20:08:36.408Z,23.28
2023-03-30T20:11:07.552Z,23.33
2023-03-30T20:13:36.592Z,23.28
2023-03-30T20:16:05.749Z,23.21
2023-03-30T20:18:35.115Z,23.20
2023-03-30T20:21:04.614Z,23.24
2023-03-30T20:23:34.258Z,23.38
2023-03-30T20:26:04.210Z,23.47
2023-03-30T20:28:33.387Z,23.33
2023-03-30T20:31:02.035Z,23.43
2023-03-30T20:33:34.640Z,23.48
2023-03-30T20:36:04.322Z,23.62
2023-03-30T20:38:33.997Z,23.67
2023-03-30T20:41:04.360Z,23.53
2023-03-30T20:43:53.556Z,23.64
2023-03-30T20:46:34.712Z,23.84
2023-03-30T20:49:04.418Z,23.93
2023-03-30T20:51:32.966Z,23.91
2023-03-30T20:54:02.520Z,23.94
2023-03-30T20:56:32.230Z,23.95
2023-03-30T20:59:01.715Z,23.87
2023-03-30T21:01:30.893Z,23.95
2023-03-30T21:04:01.149Z,24.04
2023-03-30T21:06:31.515Z,24.08
2023-03-30T21:09:01.274Z,24.01
2023-03-30T21:11:32.992Z,24.10
2023-03-30T21:14:01.475Z,24.09
2023-03-30T21:16:30.016Z,24.04
2023-03-30T21:18:58.894Z,24.21
2023-03-30T21:21:27.523Z,24.31
2023-03-30T21:23:57.985Z,24.31
2023-03-30T21:26:26.654Z,24.32
2023-03-30T21:28:56.607Z,24.40
2023-03-30T21:31:25.262Z,24.50
2023-03-30T21:33:53.569Z,24.57
2023-03-30T21:36:22.004Z,24.84
2023-03-30T21:38:50.641Z,24.82
2023-03-30T21:41:23.200Z,25.34
2023-03-30T21:43:51.696Z,25.67
2023-03-30T21:46:21.118Z,25.89
2023-03-30T21:48:53.133Z,25.99
2023-03-30T21:51:23.619Z,25.81
2023-03-30T21:53:53.108Z,26.15
2023-03-30T21:56:22.972Z,26.47
2023-03-30T21:58:51.860Z,26.14
2023-03-30T22:01:24.024Z,26.16
2023-03-30T22:03:53.421Z,26.46
2023-03-30T22:06:22.188Z,26.22
2023-03-30T22:08:50.683Z,26.20
2023-03-30T22:11:20.893Z,26.39
2023-03-30T22:13:49.610Z,26.46
2023-03-30T22:16:19.081Z,26.45
2023-03-30T22:18:47.905Z,26.02
2023-03-30T22:21:18.346Z,25.97
2023-03-30T22:23:47.183Z,25.98
2023-03-30T22:26:16.128Z,26.02
2023-03-30T22:28:44.597Z,26.09
2023-03-30T22:31:14.958Z,26.16
2023-03-30T22:33:43.981Z,25.98
2023-03-30T22:36:16.963Z,25.88
2023-03-30T22:38:46.682Z,25.87
2023-03-30T22:41:15.419Z,26.24
2023-03-30T22:43:43.702Z,26.12
2023-03-30T22:46:12.446Z,26.15
2023-03-30T22:48:43.692Z,26.18
2023-03-30T22:51:22.782Z,26.25
2023-03-30T22:53:51.350Z,26.17
2023-03-30T22:56:19.897Z,26.19
2023-03-30T22:58:48.434Z,26.24
2023-03-30T23:01:16.723Z,26.22
2023-03-30T23:03:49.588Z,26.20
2023-03-30T23:06:19.422Z,26.15
2023-03-30T23:08:48.018Z,26.27
2023-03-30T23:11:16.687Z,26.34
2023-03-30T23:13:47.085Z,26.42
2023-03-30T23:16:15.761Z,26.54
2023-03-30T23:18:44.104Z,26.67
2023-03-30T23:21:13.351Z,26.78
2023-03-30T23:23:42.494Z,26.93
2023-03-30T23:26:12.232Z,26.96
2023-03-30T23:28:42.327Z,26.98
2023-03-30T23:31:16.696Z,27.01
2023-03-30T23:33:45.876Z,26.78
2023-03-30T23:36:18.138Z,26.94
2023-03-30T23:38:48.435Z,26.85
2023-03-30T23:41:18.103Z,26.92
2023-03-30T23:43:46.968Z,26.80
2023-03-30T23:46:15.675Z,26.77
2023-03-30T23:48:44.725Z,26.89
2023-03-30T23:51:15.542Z,26.95
2023-03-30T23:53:46.743Z,26.93
2023-03-30T23:56:16.458Z,26.88
2023-03-30T23:58:45.255Z,26.98
